Monday, April 20, 2015, 10:51 PM EDT

KOXB, Ocean City Municipal Airport

Location: Berlin, MD, United States Lat: 38.317
Local Time: 10:51 PM EDT ( 2:51 GMT) Lon: -75.117
Time Zone: US/Eastern Elev: 13 ft

Show me the last for .
Show Decoded

2015-04-20 21:53 METAR KOXB 210153Z AUTO 21009KT 8SM CLR 15/13 A2963 RMK AO2 SLP033 T01500133
                 TSNO =
2015-04-20 20:53 METAR KOXB 210053Z AUTO 20005KT 7SM CLR 13/12 A2963 RMK AO2 SLP034 T01330122
                 TSNO =
2015-04-20 19:53 METAR KOXB 202353Z AUTO 21009KT 8SM CLR 14/13 A2964 RMK AO2 SLP037 T01440128
                 10178 20139 53002 TSNO =
2015-04-20 18:53 METAR KOXB 202253Z AUTO 19007KT 160V230 8SM CLR 14/13 A2963 RMK AO2 SLP034
                 T01440133 TSNO =
2015-04-20 17:53 METAR KOXB 202153Z AUTO 17005KT 8SM CLR 15/13 A2962 RMK AO2 PRESFR SLP030
                 T01500133 TSNO =
2015-04-20 16:53 METAR KOXB 202053Z AUTO 19008KT 10SM CLR 16/13 A2964 RMK AO2 SLP036 T01560133
                 56014 TSNO =
2015-04-20 15:53 METAR KOXB 201953Z AUTO 20007KT 170V230 10SM CLR 16/14 A2964 RMK AO2 SLP037
                 T01610139 TSNO =
2015-04-20 14:53 METAR KOXB 201853Z AUTO 19007G15KT 160V220 10SM CLR 16/13 A2966 RMK AO2 SLP043
                 T01560133 TSNO =
2015-04-20 13:53 METAR KOXB 201753Z AUTO 20008KT 10SM FEW026 FEW037 16/14 A2968 RMK AO2 SLP050
                 T01610139 10189 20133 56012 TSNO =
2015-04-20 13:31 METAR KOXB 201731Z AUTO 19008KT 10SM FEW025 SCT031 BKN038 16/14 A2968 RMK AO2
                 T01610139 TSNO =
2015-04-20 13:21 METAR KOXB 201721Z AUTO 18007KT 9SM BKN025 BKN033 15/13 A2968 RMK AO2 T01500133
                 TSNO =
2015-04-20 12:53 METAR KOXB 201653Z AUTO 18009G15KT 10SM FEW026 17/15 A2969 RMK AO2 SLP054
                 T01670150 TSNO =
2015-04-20 12:10 METAR KOXB 201610Z AUTO 20006KT 10SM SCT026 18/16 A2969 RMK AO2 T01830161 TSNO =
2015-04-20 11:53 METAR KOXB 201553Z AUTO 19007KT 9SM OVC025 16/15 A2970 RMK AO2 SLP057 T01610150
                 TSNO =
2015-04-20 10:53 METAR KOXB 201453Z AUTO 20009KT 10SM BKN015 16/14 A2972 RMK AO2 SLP062 T01610144
                 58001 TSNO =
2015-04-20 10:34 METAR KOXB 201434Z AUTO 21009G15KT 8SM BKN013 16/14 A2972 RMK AO2 T01560139 TSNO
                 =
2015-04-20 10:15 METAR KOXB 201415Z AUTO 19008KT 9SM BKN008 BKN050 16/15 A2972 RMK AO2 T01610150
                 TSNO =
2015-04-20 09:53 METAR KOXB 201353Z AUTO 20006KT 10SM FEW008 SCT040 BKN050 16/15 A2972 RMK AO2
                 SLP064 T01560150 TSNO =
2015-04-20 09:30 METAR KOXB 201330Z AUTO 20006KT 6SM BR FEW005 SCT042 16/15 A2972 RMK AO2
                 T01560150 TSNO =
2015-04-20 08:53 METAR KOXB 201253Z AUTO 20005KT 6SM BR SCT004 BKN044 14/14 A2972 RMK AO2 SLP063
                 T01390139 TSNO =
2015-04-20 08:51 METAR KOXB 201251Z AUTO 18005KT 6SM BR SCT002 BKN044 14/13 A2972 RMK AO2 TSNO =
2015-04-20 08:39 METAR KOXB 201239Z AUTO 21007KT 4SM BR BKN002 OVC042 13/13 A2972 RMK AO2
                 T01330133 TSNO =
2015-04-20 08:23 METAR KOXB 201223Z AUTO 21007G15KT 2 1/2SM BR OVC002 13/13 A2973 RMK AO2
                 T01330133 TSNO =
2015-04-20 07:43 METAR KOXB 201143Z AUTO 18012G18KT 3SM BR OVC002 14/14 A2973 RMK AO2 RAE42 P0009
                 T01440139 TSNO =
2015-04-20 07:33 METAR KOXB 201133Z AUTO 20008KT 160V250 1 3/4SM -RA BR OVC002 13/13 A2973 RMK
                 AO2 VIS 1V2 1/2 P0009 T01330133 TSNO =
2015-04-20 07:23 METAR KOXB 201123Z AUTO 16008G16KT 120V210 2SM RA BR OVC002 13/13 A2973 RMK AO2
                 P0008 T01330133 TSNO =
2015-04-20 07:14 METAR KOXB 201114Z AUTO 15009G19KT 3SM -RA BR OVC002 14/14 A2972 RMK AO2 P0006
                 T01440139 TSNO =
2015-04-20 06:53 METAR KOXB 201053Z AUTO 15007G18KT 110V190 2 1/2SM -RA BR OVC002 14/13 A2973 RMK
                 AO2 SLP066 P0021 T01390133 TSNO =
2015-04-20 06:50 METAR KOXB 201050Z AUTO 15008G20KT 110V190 2 1/2SM -RA BR OVC002 13/13 A2973 RMK
                 AO2 P0021 TSNO =
2015-04-20 06:38 METAR KOXB 201038Z AUTO 15009G17KT 130V190 1 3/4SM +RA BR BKN002 OVC028 14/14
                 A2973 RMK AO2 P0018 T01390139 TSNO =
2015-04-20 06:29 METAR KOXB 201029Z AUTO 15009G16KT 2SM RA BR OVC002 13/13 A2974 RMK AO2 P0010
                 T01330133 TSNO =
2015-04-20 06:21 METAR KOXB 201021Z AUTO VRB06G18KT 3SM -RA BR OVC002 13/13 A2974 RMK AO2 P0005
                 T01330133 TSNO =
2015-04-20 06:08 METAR KOXB 201008Z AUTO 15008G18KT 120V180 2 1/2SM -RA BR BKN002 BKN016 OVC022
                 13/13 A2975 RMK AO2 P0004 T01330128 TSNO =
2015-04-20 05:53 METAR KOXB 200953Z AUTO 15007G17KT 120V180 2SM +RA BR FEW002 BKN020 OVC031 13/13
                 A2975 RMK AO2 SLP074 P0016 T01330128 TSNO =
2015-04-20 05:48 METAR KOXB 200948Z AUTO 15010G18KT 2SM RA BR SCT002 BKN016 OVC039 13/13 A2975
                 RMK AO2 P0013 TSNO =
2015-04-20 05:11 METAR KOXB 200911Z AUTO 15007G17KT 120V180 3SM -RA BR OVC002 13/13 A2976 RMK AO2
                 P0001 T01330133 TSNO =
2015-04-20 04:42 METAR KOXB 200842Z AUTO 14010G20KT 2SM -RA BR OVC002 13/13 A2977 RMK AO2 P0007
                 T01330133 TSNO =
2015-04-20 04:02 METAR KOXB 200802Z AUTO 13007KT 1 1/2SM RA BR OVC002 12/12 A2981 RMK AO2 P0003
                 T01220122 TSNO =
2015-04-20 03:53 METAR KOXB 200753Z AUTO 12006KT 2SM RA BR OVC003 13/12 A2982 RMK AO2 PRESFR
                 SLP096 P0031 T01280122 TSNO =
2015-04-20 03:48 METAR KOXB 200748Z AUTO 12009KT 2SM -RA BR BKN003 OVC015 13/13 A2982 RMK AO2
                 P0029 TSNO =
2015-04-20 03:40 METAR KOXB 200740Z AUTO 13009G15KT 2SM RA BR BKN004 BKN011 OVC019 13/13 A2983
                 RMK AO2 P0028 T01330128 TSNO =
2015-04-20 03:16 METAR KOXB 200716Z AUTO VRB06G18KT 1 1/4SM +RA BR FEW004 BKN011 OVC032 13/13
                 A2984 RMK AO2 P0018 T01280128 TSNO =
2015-04-20 03:12 METAR KOXB 200712Z AUTO 13011G18KT 1 3/4SM +RA BR SCT011 BKN022 OVC033 13/12
                 A2984 RMK AO2 P0010 T01280122 TSNO =
2015-04-20 03:10 METAR KOXB 200710Z AUTO 14008G18KT 2 1/2SM +RA BR FEW012 BKN022 OVC033 13/12
                 A2984 RMK AO2 P0007 T01280117 TSNO =
2015-04-20 01:53 METAR KOXB 200553Z AUTO 11014G19KT 6SM BR SCT055 OVC080 12/11 A2988 RMK AO2
                 SLP118 T01170111 10122 20100 56040 TSNO =
2015-04-20 00:53 METAR KOXB 200453Z AUTO 10011G23KT 7SM BKN110 12/11 A2991 RMK AO2 SLP129
                 T01170106 401390100 TSNO =
2015-04-20 00:21 METAR KOXB 200421Z AUTO 11013G20KT 9SM SCT026 OVC095 12/11 A2994 RMK AO2
                 T01220106 TSNO =
2015-04-20 00:07 METAR KOXB 200407Z AUTO 10010KT 9SM BKN026 BKN070 OVC100 12/10 A2995 RMK AO2
                 T01170100 TSNO =
2015-04-19 23:53 METAR KOXB 200353Z AUTO 10010G17KT 9SM FEW027 SCT070 OVC100 12/10 A2996 RMK AO2
                 SLP145 T01170100 TSNO =
2015-04-19 22:53 METAR KOXB 200253Z AUTO 10012G20KT 10SM OVC110 11/09 A3000 RMK AO2 SLP157
                 T01110094 58028 TSNO =

Support USWX by starting your Amazon purchase here.